sensor_id;sensor_type;location;lat;lon;timestamp;temperature;humidity
39601;DHT22;25297;44.758;11.310;2023-01-16T00:00:53;11.00;99.90
39601;DHT22;25297;44.758;11.310;2023-01-16T00:03:19;11.00;99.90
39601;DHT22;25297;44.758;11.310;2023-01-16T00:05:45;11.00;99.90
39601;DHT22;25297;44.758;11.310;2023-01-16T00:08:11;11.00;99.90
39601;DHT22;25297;44.758;11.310;2023-01-16T00:10:37;11.00;99.90
39601;DHT22;25297;44.758;11.310;2023-01-16T00:13:03;11.00;99.90
39601;DHT22;25297;44.758;11.310;2023-01-16T00:15:29;10.90;99.90
39601;DHT22;25297;44.758;11.310;2023-01-16T00:17:55;10.90;99.90
39601;DHT22;25297;44.758;11.310;2023-01-16T00:20:21;10.90;99.90
39601;DHT22;25297;44.758;11.310;2023-01-16T00:22:47;10.90;99.90
39601;DHT22;25297;44.758;11.310;2023-01-16T00:25:12;10.90;99.90
39601;DHT22;25297;44.758;11.310;2023-01-16T00:27:38;10.90;99.90
39601;DHT22;25297;44.758;11.310;2023-01-16T00:30:05;10.90;99.90
39601;DHT22;25297;44.758;11.310;2023-01-16T00:32:31;11.00;99.90
39601;DHT22;25297;44.758;11.310;2023-01-16T00:34:56;11.00;99.90
39601;DHT22;25297;44.758;11.310;2023-01-16T00:37:22;11.00;99.90
39601;DHT22;25297;44.758;11.310;2023-01-16T00:39:48;11.00;99.90
39601;DHT22;25297;44.758;11.310;2023-01-16T00:42:14;11.00;99.90
39601;DHT22;25297;44.758;11.310;2023-01-16T00:44:40;11.00;99.90
39601;DHT22;25297;44.758;11.310;2023-01-16T00:47:06;11.00;99.90
39601;DHT22;25297;44.758;11.310;2023-01-16T00:49:32;11.10;99.90
39601;DHT22;25297;44.758;11.310;2023-01-16T00:51:57;11.10;99.90
39601;DHT22;25297;44.758;11.310;2023-01-16T00:54:23;11.00;99.90
39601;DHT22;25297;44.758;11.310;2023-01-16T00:56:49;11.00;99.90
39601;DHT22;25297;44.758;11.310;2023-01-16T00:59:14;11.10;99.90
39601;DHT22;25297;44.758;11.310;2023-01-16T01:01:40;11.00;99.90
39601;DHT22;25297;44.758;11.310;2023-01-16T01:04:06;11.00;99.90
39601;DHT22;25297;44.758;11.310;2023-01-16T01:06:32;11.00;99.90
39601;DHT22;25297;44.758;11.310;2023-01-16T01:09:00;11.00;99.90
39601;DHT22;25297;44.758;11.310;2023-01-16T01:11:25;11.00;99.90
39601;DHT22;25297;44.758;11.310;2023-01-16T01:13:51;11.00;99.90
39601;DHT22;25297;44.758;11.310;2023-01-16T01:16:17;10.90;99.90
39601;DHT22;25297;44.758;11.310;2023-01-16T01:18:42;11.00;99.90
39601;DHT22;25297;44.758;11.310;2023-01-16T01:21:09;11.00;99.90
39601;DHT22;25297;44.758;11.310;2023-01-16T01:23:35;11.00;99.90
39601;DHT22;25297;44.758;11.310;2023-01-16T01:26:11;11.00;99.90
39601;DHT22;25297;44.758;11.310;2023-01-16T01:28:38;10.90;99.90
39601;DHT22;25297;44.758;11.310;2023-01-16T01:31:06;10.90;99.90
39601;DHT22;25297;44.758;11.310;2023-01-16T01:33:32;10.90;99.90
39601;DHT22;25297;44.758;11.310;2023-01-16T01:35:57;10.90;99.90
39601;DHT22;25297;44.758;11.310;2023-01-16T01:38:23;10.90;99.90
39601;DHT22;25297;44.758;11.310;2023-01-16T01:40:49;11.00;99.90
39601;DHT22;25297;44.758;11.310;2023-01-16T01:43:15;11.00;99.90
39601;DHT22;25297;44.758;11.310;2023-01-16T01:45:45;11.00;99.90
39601;DHT22;25297;44.758;11.310;2023-01-16T01:51:10;10.90;99.90
39601;DHT22;25297;44.758;11.310;2023-01-16T01:56:20;10.90;99.90
39601;DHT22;25297;44.758;11.310;2023-01-16T01:58:51;10.90;99.90
39601;DHT22;25297;44.758;11.310;2023-01-16T02:01:18;10.90;99.90
39601;DHT22;25297;44.758;11.310;2023-01-16T02:03:56;10.90;99.90
39601;DHT22;25297;44.758;11.310;2023-01-16T02:07:09;10.80;99.90
39601;DHT22;25297;44.758;11.310;2023-01-16T02:09:16;10.90;99.90
39601;DHT22;25297;44.758;11.310;2023-01-16T02:11:56;10.90;99.90
39601;DHT22;25297;44.758;11.310;2023-01-16T02:14:23;10.90;99.90
39601;DHT22;25297;44.758;11.310;2023-01-16T02:16:58;10.90;99.90
39601;DHT22;25297;44.758;11.310;2023-01-16T02:34:21;10.90;99.90
39601;DHT22;25297;44.758;11.310;2023-01-16T02:45:22;10.90;99.90
39601;DHT22;25297;44.758;11.310;2023-01-16T02:48:12;10.80;99.90
39601;DHT22;25297;44.758;11.310;2023-01-16T02:50:55;10.80;99.90
39601;DHT22;25297;44.758;11.310;2023-01-16T02:53:28;10.90;99.90
39601;DHT22;25297;44.758;11.310;2023-01-16T02:55:57;10.90;99.90
39601;DHT22;25297;44.758;11.310;2023-01-16T02:58:29;10.90;99.90
39601;DHT22;25297;44.758;11.310;2023-01-16T03:00:58;10.80;99.90
39601;DHT22;25297;44.758;11.310;2023-01-16T03:12:12;10.80;99.50
39601;DHT22;25297;44.758;11.310;2023-01-16T03:14:55;10.80;99.60
39601;DHT22;25297;44.758;11.310;2023-01-16T03:17:31;10.80;99.60
39601;DHT22;25297;44.758;11.310;2023-01-16T03:21:10;10.80;99.60
39601;DHT22;25297;44.758;11.310;2023-01-16T03:25:48;10.80;99.60
39601;DHT22;25297;44.758;11.310;2023-01-16T03:33:42;10.80;99.50
39601;DHT22;25297;44.758;11.310;2023-01-16T03:36:23;10.80;99.50
39601;DHT22;25297;44.758;11.310;2023-01-16T03:38:50;10.80;99.50
39601;DHT22;25297;44.758;11.310;2023-01-16T03:41:20;10.80;99.50
39601;DHT22;25297;44.758;11.310;2023-01-16T03:43:49;10.80;99.50
39601;DHT22;25297;44.758;11.310;2023-01-16T03:46:19;10.80;99.60
39601;DHT22;25297;44.758;11.310;2023-01-16T03:51:30;10.90;99.50
39601;DHT22;25297;44.758;11.310;2023-01-16T03:56:49;10.90;99.40
39601;DHT22;25297;44.758;11.310;2023-01-16T03:59:16;10.90;99.50
39601;DHT22;25297;44.758;11.310;2023-01-16T04:04:51;10.90;99.30
39601;DHT22;25297;44.758;11.310;2023-01-16T04:10:15;10.80;99.30
39601;DHT22;25297;44.758;11.310;2023-01-16T04:12:45;10.80;99.40
39601;DHT22;25297;44.758;11.310;2023-01-16T04:15:12;10.80;99.50
39601;DHT22;25297;44.758;11.310;2023-01-16T04:17:39;10.80;99.50
39601;DHT22;25297;44.758;11.310;2023-01-16T04:20:06;10.80;99.50
39601;DHT22;25297;44.758;11.310;2023-01-16T04:22:33;10.80;99.50
39601;DHT22;25297;44.758;11.310;2023-01-16T04:25:00;10.80;99.30
39601;DHT22;25297;44.758;11.310;2023-01-16T04:27:27;10.80;99.20
39601;DHT22;25297;44.758;11.310;2023-01-16T04:29:52;10.70;99.30
39601;DHT22;25297;44.758;11.310;2023-01-16T04:32:18;10.70;99.30
39601;DHT22;25297;44.758;11.310;2023-01-16T04:34:44;10.70;99.40
39601;DHT22;25297;44.758;11.310;2023-01-16T04:37:14;10.70;99.50
39601;DHT22;25297;44.758;11.310;2023-01-16T04:39:40;10.70;99.60
39601;DHT22;25297;44.758;11.310;2023-01-16T04:42:10;10.80;99.50
39601;DHT22;25297;44.758;11.310;2023-01-16T04:44:35;10.70;99.30
39601;DHT22;25297;44.758;11.310;2023-01-16T04:47:01;10.70;99.30
39601;DHT22;25297;44.758;11.310;2023-01-16T04:49:27;10.70;99.20
39601;DHT22;25297;44.758;11.310;2023-01-16T04:51:52;10.70;99.20
39601;DHT22;25297;44.758;11.310;2023-01-16T04:54:19;10.70;99.10
39601;DHT22;25297;44.758;11.310;2023-01-16T04:56:45;10.70;99.10
39601;DHT22;25297;44.758;11.310;2023-01-16T04:59:11;10.70;99.10
39601;DHT22;25297;44.758;11.310;2023-01-16T05:01:39;10.60;99.10
39601;DHT22;25297;44.758;11.310;2023-01-16T05:04:06;10.60;99.20
39601;DHT22;25297;44.758;11.310;2023-01-16T05:06:32;10.70;99.20
39601;DHT22;25297;44.758;11.310;2023-01-16T05:08:59;10.70;99.10
39601;DHT22;25297;44.758;11.310;2023-01-16T05:11:25;10.70;99.10
39601;DHT22;25297;44.758;11.310;2023-01-16T05:13:51;10.70;99.10
39601;DHT22;25297;44.758;11.310;2023-01-16T05:16:17;10.70;99.10
39601;DHT22;25297;44.758;11.310;2023-01-16T05:18:43;10.70;99.00
39601;DHT22;25297;44.758;11.310;2023-01-16T05:21:08;10.70;98.90
39601;DHT22;25297;44.758;11.310;2023-01-16T05:23:34;10.70;98.90
39601;DHT22;25297;44.758;11.310;2023-01-16T05:26:01;10.70;98.90
39601;DHT22;25297;44.758;11.310;2023-01-16T05:28:27;10.70;98.80
39601;DHT22;25297;44.758;11.310;2023-01-16T05:30:53;10.70;98.60
39601;DHT22;25297;44.758;11.310;2023-01-16T05:33:19;10.60;98.60
39601;DHT22;25297;44.758;11.310;2023-01-16T05:35:46;10.60;98.50
39601;DHT22;25297;44.758;11.310;2023-01-16T05:38:12;10.60;98.50
39601;DHT22;25297;44.758;11.310;2023-01-16T05:40:38;10.60;98.60
39601;DHT22;25297;44.758;11.310;2023-01-16T05:43:04;10.60;98.70
39601;DHT22;25297;44.758;11.310;2023-01-16T05:45:30;10.60;98.70
39601;DHT22;25297;44.758;11.310;2023-01-16T05:47:56;10.60;98.60
39601;DHT22;25297;44.758;11.310;2023-01-16T05:50:22;10.60;98.60
39601;DHT22;25297;44.758;11.310;2023-01-16T05:52:47;10.60;98.50
39601;DHT22;25297;44.758;11.310;2023-01-16T05:55:13;10.50;98.50
39601;DHT22;25297;44.758;11.310;2023-01-16T05:57:39;10.50;98.50
39601;DHT22;25297;44.758;11.310;2023-01-16T06:00:05;10.50;98.50
39601;DHT22;25297;44.758;11.310;2023-01-16T06:02:31;10.50;98.20
39601;DHT22;25297;44.758;11.310;2023-01-16T06:04:57;10.50;98.00
39601;DHT22;25297;44.758;11.310;2023-01-16T06:07:22;10.40;98.00
39601;DHT22;25297;44.758;11.310;2023-01-16T06:09:48;10.40;98.20
39601;DHT22;25297;44.758;11.310;2023-01-16T06:12:15;10.40;98.20
39601;DHT22;25297;44.758;11.310;2023-01-16T06:14:41;10.40;98.10
39601;DHT22;25297;44.758;11.310;2023-01-16T06:17:07;10.40;98.10
39601;DHT22;25297;44.758;11.310;2023-01-16T06:19:32;10.30;98.00
39601;DHT22;25297;44.758;11.310;2023-01-16T06:21:58;10.40;98.00
39601;DHT22;25297;44.758;11.310;2023-01-16T06:24:24;10.30;97.90
39601;DHT22;25297;44.758;11.310;2023-01-16T06:26:49;10.30;98.00
39601;DHT22;25297;44.758;11.310;2023-01-16T06:29:15;10.30;98.00
39601;DHT22;25297;44.758;11.310;2023-01-16T06:31:41;10.40;97.90
39601;DHT22;25297;44.758;11.310;2023-01-16T06:34:06;10.30;98.00
39601;DHT22;25297;44.758;11.310;2023-01-16T06:36:32;10.30;98.10
39601;DHT22;25297;44.758;11.310;2023-01-16T06:38:57;10.30;98.10
39601;DHT22;25297;44.758;11.310;2023-01-16T06:41:23;10.30;98.20
39601;DHT22;25297;44.758;11.310;2023-01-16T06:43:49;10.30;98.20
39601;DHT22;25297;44.758;11.310;2023-01-16T06:46:14;10.30;98.30
39601;DHT22;25297;44.758;11.310;2023-01-16T06:48:40;10.30;98.20
39601;DHT22;25297;44.758;11.310;2023-01-16T06:51:08;10.30;98.20
39601;DHT22;25297;44.758;11.310;2023-01-16T06:53:35;10.30;98.30
39601;DHT22;25297;44.758;11.310;2023-01-16T06:56:01;10.30;98.10
39601;DHT22;25297;44.758;11.310;2023-01-16T06:58:26;10.30;98.10
39601;DHT22;25297;44.758;11.310;2023-01-16T07:00:52;10.30;98.20
39601;DHT22;25297;44.758;11.310;2023-01-16T07:03:18;10.30;98.20
39601;DHT22;25297;44.758;11.310;2023-01-16T07:05:45;10.30;98.30
39601;DHT22;25297;44.758;11.310;2023-01-16T07:08:11;10.30;98.40
39601;DHT22;25297;44.758;11.310;2023-01-16T07:10:37;10.30;98.40
39601;DHT22;25297;44.758;11.310;2023-01-16T07:13:02;10.30;98.40
39601;DHT22;25297;44.758;11.310;2023-01-16T07:15:28;10.30;98.50
39601;DHT22;25297;44.758;11.310;2023-01-16T07:18:13;10.20;98.70
39601;DHT22;25297;44.758;11.310;2023-01-16T07:21:00;10.30;98.70
39601;DHT22;25297;44.758;11.310;2023-01-16T07:23:49;10.30;98.70
39601;DHT22;25297;44.758;11.310;2023-01-16T07:26:17;10.30;98.70
39601;DHT22;25297;44.758;11.310;2023-01-16T07:28:45;10.30;98.80
39601;DHT22;25297;44.758;11.310;2023-01-16T07:31:11;10.20;98.80
39601;DHT22;25297;44.758;11.310;2023-01-16T07:33:37;10.20;98.70
39601;DHT22;25297;44.758;11.310;2023-01-16T07:36:03;10.20;98.60
39601;DHT22;25297;44.758;11.310;2023-01-16T07:38:29;10.20;98.60
39601;DHT22;25297;44.758;11.310;2023-01-16T07:40:54;10.20;98.70
39601;DHT22;25297;44.758;11.310;2023-01-16T07:43:21;10.20;98.70
39601;DHT22;25297;44.758;11.310;2023-01-16T07:45:46;10.10;98.80
39601;DHT22;25297;44.758;11.310;2023-01-16T07:48:21;10.10;98.80
39601;DHT22;25297;44.758;11.310;2023-01-16T07:50:55;10.10;98.90
39601;DHT22;25297;44.758;11.310;2023-01-16T07:53:22;10.10;99.00
39601;DHT22;25297;44.758;11.310;2023-01-16T07:55:49;10.10;99.00
39601;DHT22;25297;44.758;11.310;2023-01-16T07:58:16;10.10;98.90
39601;DHT22;25297;44.758;11.310;2023-01-16T08:00:42;10.10;98.90
39601;DHT22;25297;44.758;11.310;2023-01-16T08:03:07;10.10;98.90
39601;DHT22;25297;44.758;11.310;2023-01-16T08:05:33;10.10;99.00
39601;DHT22;25297;44.758;11.310;2023-01-16T08:07:58;10.10;99.00
39601;DHT22;25297;44.758;11.310;2023-01-16T08:10:24;10.10;99.00
39601;DHT22;25297;44.758;11.310;2023-01-16T08:12:50;10.20;98.90
39601;DHT22;25297;44.758;11.310;2023-01-16T08:15:16;10.20;99.00
39601;DHT22;25297;44.758;11.310;2023-01-16T08:17:42;10.20;99.00
39601;DHT22;25297;44.758;11.310;2023-01-16T08:20:08;10.20;99.00
39601;DHT22;25297;44.758;11.310;2023-01-16T08:22:48;10.20;99.00
39601;DHT22;25297;44.758;11.310;2023-01-16T08:25:17;10.20;98.90
39601;DHT22;25297;44.758;11.310;2023-01-16T08:27:43;10.20;98.70
39601;DHT22;25297;44.758;11.310;2023-01-16T08:30:09;10.20;98.70
39601;DHT22;25297;44.758;11.310;2023-01-16T08:32:35;10.30;98.60
39601;DHT22;25297;44.758;11.310;2023-01-16T08:35:01;10.20;98.60
39601;DHT22;25297;44.758;11.310;2023-01-16T08:37:32;10.30;98.60
39601;DHT22;25297;44.758;11.310;2023-01-16T08:39:58;10.30;98.70
39601;DHT22;25297;44.758;11.310;2023-01-16T08:42:24;10.30;98.60
39601;DHT22;25297;44.758;11.310;2023-01-16T08:45:09;10.30;98.50
39601;DHT22;25297;44.758;11.310;2023-01-16T08:47:54;10.30;98.40
39601;DHT22;25297;44.758;11.310;2023-01-16T08:50:39;10.40;98.30
39601;DHT22;25297;44.758;11.310;2023-01-16T08:53:23;10.30;98.30
39601;DHT22;25297;44.758;11.310;2023-01-16T08:55:48;10.30;98.30
39601;DHT22;25297;44.758;11.310;2023-01-16T08:58:14;10.30;98.20
39601;DHT22;25297;44.758;11.310;2023-01-16T09:00:40;10.30;98.20
39601;DHT22;25297;44.758;11.310;2023-01-16T09:03:06;10.30;98.20
39601;DHT22;25297;44.758;11.310;2023-01-16T09:05:32;10.20;98.30
39601;DHT22;25297;44.758;11.310;2023-01-16T09:07:57;10.20;98.30
39601;DHT22;25297;44.758;11.310;2023-01-16T09:10:24;10.20;98.40
39601;DHT22;25297;44.758;11.310;2023-01-16T09:12:50;10.20;98.50
39601;DHT22;25297;44.758;11.310;2023-01-16T09:15:34;10.30;98.70
39601;DHT22;25297;44.758;11.310;2023-01-16T09:18:00;10.30;98.80
39601;DHT22;25297;44.758;11.310;2023-01-16T09:20:25;10.40;98.90
39601;DHT22;25297;44.758;11.310;2023-01-16T09:22:57;10.40;98.80
39601;DHT22;25297;44.758;11.310;2023-01-16T09:25:23;10.40;98.60
39601;DHT22;25297;44.758;11.310;2023-01-16T09:27:49;10.40;98.60
39601;DHT22;25297;44.758;11.310;2023-01-16T09:30:15;10.40;98.60
39601;DHT22;25297;44.758;11.310;2023-01-16T09:32:40;10.50;98.60
39601;DHT22;25297;44.758;11.310;2023-01-16T09:35:06;10.50;98.60
39601;DHT22;25297;44.758;11.310;2023-01-16T09:37:32;10.50;98.40
39601;DHT22;25297;44.758;11.310;2023-01-16T09:39:57;10.50;98.50
39601;DHT22;25297;44.758;11.310;2023-01-16T09:45:42;10.50;98.60
39601;DHT22;25297;44.758;11.310;2023-01-16T09:48:32;10.50;98.70
39601;DHT22;25297;44.758;11.310;2023-01-16T09:51:03;10.50;98.70
39601;DHT22;25297;44.758;11.310;2023-01-16T09:53:52;10.50;98.80
39601;DHT22;25297;44.758;11.310;2023-01-16T09:56:41;10.50;98.90
39601;DHT22;25297;44.758;11.310;2023-01-16T10:02:14;10.50;99.10
39601;DHT22;25297;44.758;11.310;2023-01-16T10:04:43;10.50;99.20
39601;DHT22;25297;44.758;11.310;2023-01-16T10:09:56;10.60;99.60
39601;DHT22;25297;44.758;11.310;2023-01-16T10:12:35;10.60;99.60
39601;DHT22;25297;44.758;11.310;2023-01-16T10:24:01;10.70;99.00
39601;DHT22;25297;44.758;11.310;2023-01-16T10:31:40;10.70;99.50
39601;DHT22;25297;44.758;11.310;2023-01-16T10:34:23;10.70;99.40
39601;DHT22;25297;44.758;11.310;2023-01-16T10:36:54;10.70;99.30
39601;DHT22;25297;44.758;11.310;2023-01-16T10:39:32;10.70;99.20
39601;DHT22;25297;44.758;11.310;2023-01-16T10:42:15;10.60;98.90
39601;DHT22;25297;44.758;11.310;2023-01-16T10:47:50;10.50;99.00
39601;DHT22;25297;44.758;11.310;2023-01-16T10:50:34;10.40;99.20
39601;DHT22;25297;44.758;11.310;2023-01-16T10:53:02;10.40;99.20
39601;DHT22;25297;44.758;11.310;2023-01-16T10:55:28;10.40;99.10
39601;DHT22;25297;44.758;11.310;2023-01-16T10:58:00;10.30;98.90
39601;DHT22;25297;44.758;11.310;2023-01-16T11:00:35;10.30;99.10
39601;DHT22;25297;44.758;11.310;2023-01-16T11:03:13;10.30;99.30
39601;DHT22;25297;44.758;11.310;2023-01-16T11:05:40;10.30;99.50
39601;DHT22;25297;44.758;11.310;2023-01-16T11:08:17;10.30;99.70
39601;DHT22;25297;44.758;11.310;2023-01-16T11:10:50;10.20;99.90
39601;DHT22;25297;44.758;11.310;2023-01-16T11:13:20;10.30;99.90
39601;DHT22;25297;44.758;11.310;2023-01-16T11:16:19;10.30;99.90
39601;DHT22;25297;44.758;11.310;2023-01-16T11:21:58;10.40;99.90
39601;DHT22;25297;44.758;11.310;2023-01-16T11:24:34;10.40;99.90
39601;DHT22;25297;44.758;11.310;2023-01-16T11:27:02;10.40;99.90
39601;DHT22;25297;44.758;11.310;2023-01-16T11:29:36;10.40;99.90
39601;DHT22;25297;44.758;11.310;2023-01-16T11:32:06;10.40;99.90
39601;DHT22;25297;44.758;11.310;2023-01-16T11:34:33;10.40;99.90
39601;DHT22;25297;44.758;11.310;2023-01-16T11:37:04;10.30;99.90
39601;DHT22;25297;44.758;11.310;2023-01-16T11:39:32;10.40;99.90
39601;DHT22;25297;44.758;11.310;2023-01-16T11:42:03;10.40;99.90
39601;DHT22;25297;44.758;11.310;2023-01-16T11:44:50;10.40;99.90
39601;DHT22;25297;44.758;11.310;2023-01-16T11:47:43;10.40;99.90
39601;DHT22;25297;44.758;11.310;2023-01-16T11:50:44;10.40;99.90
39601;DHT22;25297;44.758;11.310;2023-01-16T11:53:12;10.40;99.90
39601;DHT22;25297;44.758;11.310;2023-01-16T11:59:07;10.50;99.90
39601;DHT22;25297;44.758;11.310;2023-01-16T12:04:25;10.50;99.90
39601;DHT22;25297;44.758;11.310;2023-01-16T12:12:17;10.50;99.90
39601;DHT22;25297;44.758;11.310;2023-01-16T12:21:27;10.60;99.90
39601;DHT22;25297;44.758;11.310;2023-01-16T12:33:45;10.60;99.90
39601;DHT22;25297;44.758;11.310;2023-01-16T12:54:08;10.50;99.90
39601;DHT22;25297;44.758;11.310;2023-01-16T13:01:50;10.40;99.90
39601;DHT22;25297;44.758;11.310;2023-01-16T13:04:24;10.40;99.90
39601;DHT22;25297;44.758;11.310;2023-01-16T13:06:59;10.40;99.90
39601;DHT22;25297;44.758;11.310;2023-01-16T13:09:35;10.40;99.90
39601;DHT22;25297;44.758;11.310;2023-01-16T13:12:29;10.50;99.90
39601;DHT22;25297;44.758;11.310;2023-01-16T13:15:21;10.50;99.90
39601;DHT22;25297;44.758;11.310;2023-01-16T13:18:06;10.50;99.90
39601;DHT22;25297;44.758;11.310;2023-01-16T13:20:36;10.50;99.90
39601;DHT22;25297;44.758;11.310;2023-01-16T13:23:06;10.50;99.90
39601;DHT22;25297;44.758;11.310;2023-01-16T13:25:42;10.50;99.90
39601;DHT22;25297;44.758;11.310;2023-01-16T13:30:52;10.40;99.90
39601;DHT22;25297;44.758;11.310;2023-01-16T13:33:21;10.30;99.90
39601;DHT22;25297;44.758;11.310;2023-01-16T13:36:03;10.30;99.90
39601;DHT22;25297;44.758;11.310;2023-01-16T13:43:52;10.30;99.90
39601;DHT22;25297;44.758;11.310;2023-01-16T13:46:37;10.30;99.90
39601;DHT22;25297;44.758;11.310;2023-01-16T13:49:05;10.30;99.90
39601;DHT22;25297;44.758;11.310;2023-01-16T13:51:40;10.30;99.90
39601;DHT22;25297;44.758;11.310;2023-01-16T13:54:22;10.40;99.90
39601;DHT22;25297;44.758;11.310;2023-01-16T13:57:01;10.40;99.90
39601;DHT22;25297;44.758;11.310;2023-01-16T13:59:38;10.40;99.90
39601;DHT22;25297;44.758;11.310;2023-01-16T14:05:16;10.40;99.90
39601;DHT22;25297;44.758;11.310;2023-01-16T14:10:46;10.50;99.90
39601;DHT22;25297;44.758;11.310;2023-01-16T14:13:24;10.50;99.90
39601;DHT22;25297;44.758;11.310;2023-01-16T14:15:53;10.50;99.90
39601;DHT22;25297;44.758;11.310;2023-01-16T14:21:21;10.50;99.90
39601;DHT22;25297;44.758;11.310;2023-01-16T14:23:52;10.50;99.90
39601;DHT22;25297;44.758;11.310;2023-01-16T14:32:24;10.50;99.90
39601;DHT22;25297;44.758;11.310;2023-01-16T14:34:53;10.50;99.90
39601;DHT22;25297;44.758;11.310;2023-01-16T14:39:56;10.40;99.90
39601;DHT22;25297;44.758;11.310;2023-01-16T14:42:37;10.30;99.90
39601;DHT22;25297;44.758;11.310;2023-01-16T14:45:32;10.30;99.90
39601;DHT22;25297;44.758;11.310;2023-01-16T14:54:30;10.40;99.90
39601;DHT22;25297;44.758;11.310;2023-01-16T14:57:19;10.40;99.90
39601;DHT22;25297;44.758;11.310;2023-01-16T15:00:07;10.50;99.90
39601;DHT22;25297;44.758;11.310;2023-01-16T15:02:57;10.50;99.90
39601;DHT22;25297;44.758;11.310;2023-01-16T15:05:31;10.50;99.90
39601;DHT22;25297;44.758;11.310;2023-01-16T15:08:26;10.50;99.90
39601;DHT22;25297;44.758;11.310;2023-01-16T15:10:54;10.50;99.90
39601;DHT22;25297;44.758;11.310;2023-01-16T15:13:31;10.50;99.90
39601;DHT22;25297;44.758;11.310;2023-01-16T15:16:18;10.50;99.90
39601;DHT22;25297;44.758;11.310;2023-01-16T15:19:15;10.50;99.90
39601;DHT22;25297;44.758;11.310;2023-01-16T15:22:14;10.60;99.90
39601;DHT22;25297;44.758;11.310;2023-01-16T15:24:42;10.60;99.90
39601;DHT22;25297;44.758;11.310;2023-01-16T15:27:19;10.50;99.90
39601;DHT22;25297;44.758;11.310;2023-01-16T15:29:54;10.50;99.90
39601;DHT22;25297;44.758;11.310;2023-01-16T15:32:21;10.50;99.90
39601;DHT22;25297;44.758;11.310;2023-01-16T15:35:13;10.50;99.90
39601;DHT22;25297;44.758;11.310;2023-01-16T15:37:51;10.40;99.90
39601;DHT22;25297;44.758;11.310;2023-01-16T15:40:26;10.40;99.90
39601;DHT22;25297;44.758;11.310;2023-01-16T15:42:53;10.40;99.90
39601;DHT22;25297;44.758;11.310;2023-01-16T15:45:50;10.40;99.90
39601;DHT22;25297;44.758;11.310;2023-01-16T15:48:42;10.40;99.90
39601;DHT22;25297;44.758;11.310;2023-01-16T15:51:11;10.30;99.90
39601;DHT22;25297;44.758;11.310;2023-01-16T15:53:42;10.20;99.90
39601;DHT22;25297;44.758;11.310;2023-01-16T15:58:56;10.30;99.90
39601;DHT22;25297;44.758;11.310;2023-01-16T16:01:32;10.20;99.90
39601;DHT22;25297;44.758;11.310;2023-01-16T16:04:01;10.20;99.90
39601;DHT22;25297;44.758;11.310;2023-01-16T16:06:27;10.20;99.90
39601;DHT22;25297;44.758;11.310;2023-01-16T16:08:55;10.20;99.90
39601;DHT22;25297;44.758;11.310;2023-01-16T16:11:26;10.10;99.90
39601;DHT22;25297;44.758;11.310;2023-01-16T16:14:22;10.10;99.90
39601;DHT22;25297;44.758;11.310;2023-01-16T16:17:36;10.00;99.90
39601;DHT22;25297;44.758;11.310;2023-01-16T16:20:40;10.00;99.90
39601;DHT22;25297;44.758;11.310;2023-01-16T16:23:13;10.00;99.90
39601;DHT22;25297;44.758;11.310;2023-01-16T16:31:09;9.90;99.90
39601;DHT22;25297;44.758;11.310;2023-01-16T16:33:37;9.90;99.90
39601;DHT22;25297;44.758;11.310;2023-01-16T16:36:03;10.00;99.90
39601;DHT22;25297;44.758;11.310;2023-01-16T16:38:41;10.00;99.90
39601;DHT22;25297;44.758;11.310;2023-01-16T16:43:45;10.00;99.90
39601;DHT22;25297;44.758;11.310;2023-01-16T16:51:47;10.10;99.90
39601;DHT22;25297;44.758;11.310;2023-01-16T16:54:14;10.10;99.90
39601;DHT22;25297;44.758;11.310;2023-01-16T16:56:53;10.10;99.90
39601;DHT22;25297;44.758;11.310;2023-01-16T16:59:22;10.20;99.90
39601;DHT22;25297;44.758;11.310;2023-01-16T17:01:53;10.10;99.90
39601;DHT22;25297;44.758;11.310;2023-01-16T17:04:19;10.10;99.90
39601;DHT22;25297;44.758;11.310;2023-01-16T17:06:46;10.10;99.90
39601;DHT22;25297;44.758;11.310;2023-01-16T17:09:14;10.10;99.90
39601;DHT22;25297;44.758;11.310;2023-01-16T17:11:42;10.10;99.90
39601;DHT22;25297;44.758;11.310;2023-01-16T17:14:08;10.10;99.90
39601;DHT22;25297;44.758;11.310;2023-01-16T17:16:34;10.10;99.90
39601;DHT22;25297;44.758;11.310;2023-01-16T17:19:05;10.10;99.90
39601;DHT22;25297;44.758;11.310;2023-01-16T17:21:31;10.10;99.90
39601;DHT22;25297;44.758;11.310;2023-01-16T17:23:56;10.20;99.90
39601;DHT22;25297;44.758;11.310;2023-01-16T17:26:22;10.20;99.90
39601;DHT22;25297;44.758;11.310;2023-01-16T17:28:48;10.30;99.90
39601;DHT22;25297;44.758;11.310;2023-01-16T17:31:18;10.30;99.90
39601;DHT22;25297;44.758;11.310;2023-01-16T17:33:45;10.30;99.90
39601;DHT22;25297;44.758;11.310;2023-01-16T17:36:23;10.40;99.90
39601;DHT22;25297;44.758;11.310;2023-01-16T17:38:50;10.40;99.90
39601;DHT22;25297;44.758;11.310;2023-01-16T17:41:24;10.50;99.90
39601;DHT22;25297;44.758;11.310;2023-01-16T17:44:19;10.50;99.90
39601;DHT22;25297;44.758;11.310;2023-01-16T17:47:04;10.50;99.90
39601;DHT22;25297;44.758;11.310;2023-01-16T17:49:31;10.60;99.90
39601;DHT22;25297;44.758;11.310;2023-01-16T17:51:57;10.60;99.90
39601;DHT22;25297;44.758;11.310;2023-01-16T17:54:23;10.60;99.90
39601;DHT22;25297;44.758;11.310;2023-01-16T17:57:07;10.60;99.90
39601;DHT22;25297;44.758;11.310;2023-01-16T17:59:32;10.70;99.90
39601;DHT22;25297;44.758;11.310;2023-01-16T18:01:58;10.80;99.80
39601;DHT22;25297;44.758;11.310;2023-01-16T18:04:24;10.80;99.50
39601;DHT22;25297;44.758;11.310;2023-01-16T18:06:49;10.80;99.20
39601;DHT22;25297;44.758;11.310;2023-01-16T18:09:15;10.80;98.90
39601;DHT22;25297;44.758;11.310;2023-01-16T18:11:42;10.80;98.70
39601;DHT22;25297;44.758;11.310;2023-01-16T18:14:27;10.80;98.50
39601;DHT22;25297;44.758;11.310;2023-01-16T18:17:14;10.80;98.20
39601;DHT22;25297;44.758;11.310;2023-01-16T18:19:50;10.80;98.10
39601;DHT22;25297;44.758;11.310;2023-01-16T18:22:18;10.80;97.80
39601;DHT22;25297;44.758;11.310;2023-01-16T18:24:44;10.80;97.70
39601;DHT22;25297;44.758;11.310;2023-01-16T18:27:12;10.80;97.50
39601;DHT22;25297;44.758;11.310;2023-01-16T18:29:39;10.80;97.50
39601;DHT22;25297;44.758;11.310;2023-01-16T18:32:05;10.70;97.30
39601;DHT22;25297;44.758;11.310;2023-01-16T18:34:52;10.70;97.30
39601;DHT22;25297;44.758;11.310;2023-01-16T18:37:36;10.70;97.30
39601;DHT22;25297;44.758;11.310;2023-01-16T18:40:09;10.70;97.20
39601;DHT22;25297;44.758;11.310;2023-01-16T18:42:53;10.60;97.30
39601;DHT22;25297;44.758;11.310;2023-01-16T18:45:37;10.60;97.40